sensor_id;sensor_type;location;lat;lon;timestamp;temperature;humidity
73112;HTU21D;61301;51.956;5.876;2022-11-20T00:01:12;4.68;55.69
73112;HTU21D;61301;51.956;5.876;2022-11-20T00:03:38;4.80;56.88
73112;HTU21D;61301;51.956;5.876;2022-11-20T00:06:07;4.91;56.86
73112;HTU21D;61301;51.956;5.876;2022-11-20T00:08:33;5.05;56.68
73112;HTU21D;61301;51.956;5.876;2022-11-20T00:11:04;5.16;57.00
73112;HTU21D;61301;51.956;5.876;2022-11-20T00:13:31;5.25;57.06
73112;HTU21D;61301;51.956;5.876;2022-11-20T00:15:59;5.24;56.51
73112;HTU21D;61301;51.956;5.876;2022-11-20T00:18:26;5.18;56.03
73112;HTU21D;61301;51.956;5.876;2022-11-20T00:20:52;5.12;55.97
73112;HTU21D;61301;51.956;5.876;2022-11-20T00:23:19;5.09;55.78
73112;HTU21D;61301;51.956;5.876;2022-11-20T00:25:45;5.02;55.67
73112;HTU21D;61301;51.956;5.876;2022-11-20T00:28:11;5.03;55.94
73112;HTU21D;61301;51.956;5.876;2022-11-20T00:30:37;4.96;55.81
73112;HTU21D;61301;51.956;5.876;2022-11-20T00:33:03;4.82;55.17
73112;HTU21D;61301;51.956;5.876;2022-11-20T00:35:29;4.64;55.07
73112;HTU21D;61301;51.956;5.876;2022-11-20T00:37:55;4.64;56.22
73112;HTU21D;61301;51.956;5.876;2022-11-20T00:40:21;4.77;57.36
73112;HTU21D;61301;51.956;5.876;2022-11-20T00:42:47;4.75;56.32
73112;HTU21D;61301;51.956;5.876;2022-11-20T00:45:13;4.71;56.48
73112;HTU21D;61301;51.956;5.876;2022-11-20T00:47:39;4.80;56.98
73112;HTU21D;61301;51.956;5.876;2022-11-20T00:50:05;4.92;57.29
73112;HTU21D;61301;51.956;5.876;2022-11-20T00:52:31;4.98;57.11
73112;HTU21D;61301;51.956;5.876;2022-11-20T00:54:57;4.96;56.64
73112;HTU21D;61301;51.956;5.876;2022-11-20T00:57:23;4.95;56.62
73112;HTU21D;61301;51.956;5.876;2022-11-20T00:59:49;4.86;55.81
73112;HTU21D;61301;51.956;5.876;2022-11-20T01:02:15;4.52;54.69
73112;HTU21D;61301;51.956;5.876;2022-11-20T01:04:42;4.33;55.21
73112;HTU21D;61301;51.956;5.876;2022-11-20T01:07:08;4.32;56.19
73112;HTU21D;61301;51.956;5.876;2022-11-20T01:09:34;4.50;57.98
73112;HTU21D;61301;51.956;5.876;2022-11-20T01:12:00;4.64;58.51
73112;HTU21D;61301;51.956;5.876;2022-11-20T01:14:26;4.79;58.87
73112;HTU21D;61301;51.956;5.876;2022-11-20T01:16:52;4.80;57.86
73112;HTU21D;61301;51.956;5.876;2022-11-20T01:19:21;4.76;57.35
73112;HTU21D;61301;51.956;5.876;2022-11-20T01:21:49;4.67;56.81
73112;HTU21D;61301;51.956;5.876;2022-11-20T01:24:18;4.64;57.03
73112;HTU21D;61301;51.956;5.876;2022-11-20T01:26:46;4.64;56.58
73112;HTU21D;61301;51.956;5.876;2022-11-20T01:29:14;4.49;56.13
73112;HTU21D;61301;51.956;5.876;2022-11-20T01:31:42;4.44;56.87
73112;HTU21D;61301;51.956;5.876;2022-11-20T01:34:14;4.38;57.25
73112;HTU21D;61301;51.956;5.876;2022-11-20T01:36:42;4.41;57.11
73112;HTU21D;61301;51.956;5.876;2022-11-20T01:39:19;4.35;56.64
73112;HTU21D;61301;51.956;5.876;2022-11-20T01:41:46;4.35;56.64
73112;HTU21D;61301;51.956;5.876;2022-11-20T01:47:33;4.08;56.24
73112;HTU21D;61301;51.956;5.876;2022-11-20T01:50:26;4.17;56.96
73112;HTU21D;61301;51.956;5.876;2022-11-20T01:53:04;4.31;57.55
73112;HTU21D;61301;51.956;5.876;2022-11-20T01:55:41;4.39;57.40
73112;HTU21D;61301;51.956;5.876;2022-11-20T01:58:08;4.36;56.57
73112;HTU21D;61301;51.956;5.876;2022-11-20T02:00:34;4.20;55.76
73112;HTU21D;61301;51.956;5.876;2022-11-20T02:03:09;3.99;55.47
73112;HTU21D;61301;51.956;5.876;2022-11-20T02:08:38;4.10;57.26
73112;HTU21D;61301;51.956;5.876;2022-11-20T02:11:04;4.01;56.03
73112;HTU21D;61301;51.956;5.876;2022-11-20T02:13:30;3.99;56.66
73112;HTU21D;61301;51.956;5.876;2022-11-20T02:16:12;3.99;56.96
73112;HTU21D;61301;51.956;5.876;2022-11-20T02:18:39;4.04;56.98
73112;HTU21D;61301;51.956;5.876;2022-11-20T02:24:18;4.31;58.57
73112;HTU21D;61301;51.956;5.876;2022-11-20T02:26:49;4.44;58.25
73112;HTU21D;61301;51.956;5.876;2022-11-20T02:29:21;4.51;57.73
73112;HTU21D;61301;51.956;5.876;2022-11-20T02:31:48;4.48;57.23
73112;HTU21D;61301;51.956;5.876;2022-11-20T02:34:14;4.45;57.13
73112;HTU21D;61301;51.956;5.876;2022-11-20T02:36:40;4.26;55.65
73112;HTU21D;61301;51.956;5.876;2022-11-20T02:39:08;3.95;54.97
73112;HTU21D;61301;51.956;5.876;2022-11-20T02:41:36;3.86;56.11
73112;HTU21D;61301;51.956;5.876;2022-11-20T02:44:04;3.99;56.74
73112;HTU21D;61301;51.956;5.876;2022-11-20T02:46:30;4.08;56.58
73112;HTU21D;61301;51.956;5.876;2022-11-20T02:48:57;4.05;55.70
73112;HTU21D;61301;51.956;5.876;2022-11-20T02:51:23;3.91;55.72
73112;HTU21D;61301;51.956;5.876;2022-11-20T02:53:49;3.97;57.35
73112;HTU21D;61301;51.956;5.876;2022-11-20T02:56:15;4.14;59.88
73112;HTU21D;61301;51.956;5.876;2022-11-20T02:58:41;4.33;60.12
73112;HTU21D;61301;51.956;5.876;2022-11-20T03:01:07;4.45;60.06
73112;HTU21D;61301;51.956;5.876;2022-11-20T03:03:33;4.59;60.54
73112;HTU21D;61301;51.956;5.876;2022-11-20T03:05:59;4.67;59.96
73112;HTU21D;61301;51.956;5.876;2022-11-20T03:08:25;4.65;59.51
73112;HTU21D;61301;51.956;5.876;2022-11-20T03:10:52;4.64;59.60
73112;HTU21D;61301;51.956;5.876;2022-11-20T03:13:18;4.67;60.10
73112;HTU21D;61301;51.956;5.876;2022-11-20T03:15:44;4.67;59.46
73112;HTU21D;61301;51.956;5.876;2022-11-20T03:18:10;4.58;58.92
73112;HTU21D;61301;51.956;5.876;2022-11-20T03:20:36;4.51;58.64
73112;HTU21D;61301;51.956;5.876;2022-11-20T03:23:02;4.34;58.10
73112;HTU21D;61301;51.956;5.876;2022-11-20T03:25:28;4.17;58.25
73112;HTU21D;61301;51.956;5.876;2022-11-20T03:27:54;4.20;58.64
73112;HTU21D;61301;51.956;5.876;2022-11-20T03:30:20;4.30;58.86
73112;HTU21D;61301;51.956;5.876;2022-11-20T03:32:46;4.29;58.53
73112;HTU21D;61301;51.956;5.876;2022-11-20T03:35:12;4.24;57.86
73112;HTU21D;61301;51.956;5.876;2022-11-20T03:37:38;4.02;56.67
73112;HTU21D;61301;51.956;5.876;2022-11-20T03:40:05;3.82;56.76
73112;HTU21D;61301;51.956;5.876;2022-11-20T03:42:31;3.68;56.77
73112;HTU21D;61301;51.956;5.876;2022-11-20T03:45:17;3.73;57.89
73112;HTU21D;61301;51.956;5.876;2022-11-20T03:47:44;3.79;58.29
73112;HTU21D;61301;51.956;5.876;2022-11-20T03:50:12;3.83;57.94
73112;HTU21D;61301;51.956;5.876;2022-11-20T03:52:41;3.87;57.87
73112;HTU21D;61301;51.956;5.876;2022-11-20T03:55:07;3.80;57.04
73112;HTU21D;61301;51.956;5.876;2022-11-20T03:57:33;3.67;57.06
73112;HTU21D;61301;51.956;5.876;2022-11-20T03:59:59;3.62;57.84
73112;HTU21D;61301;51.956;5.876;2022-11-20T04:02:25;3.77;59.55
73112;HTU21D;61301;51.956;5.876;2022-11-20T04:04:51;3.97;59.99
73112;HTU21D;61301;51.956;5.876;2022-11-20T04:07:17;4.07;59.14
73112;HTU21D;61301;51.956;5.876;2022-11-20T04:09:43;3.85;57.70
73112;HTU21D;61301;51.956;5.876;2022-11-20T04:12:09;3.84;58.38
73112;HTU21D;61301;51.956;5.876;2022-11-20T04:14:35;3.80;58.04
73112;HTU21D;61301;51.956;5.876;2022-11-20T04:17:01;3.76;57.90
73112;HTU21D;61301;51.956;5.876;2022-11-20T04:19:28;3.82;58.61
73112;HTU21D;61301;51.956;5.876;2022-11-20T04:21:54;3.90;59.19
73112;HTU21D;61301;51.956;5.876;2022-11-20T04:24:20;3.97;58.78
73112;HTU21D;61301;51.956;5.876;2022-11-20T04:26:46;3.91;58.30
73112;HTU21D;61301;51.956;5.876;2022-11-20T04:29:12;3.84;58.06
73112;HTU21D;61301;51.956;5.876;2022-11-20T04:31:38;3.87;58.85
73112;HTU21D;61301;51.956;5.876;2022-11-20T04:34:06;3.91;58.83
73112;HTU21D;61301;51.956;5.876;2022-11-20T04:36:32;3.84;57.80
73112;HTU21D;61301;51.956;5.876;2022-11-20T04:39:01;3.71;58.30
73112;HTU21D;61301;51.956;5.876;2022-11-20T04:41:30;3.80;59.45
73112;HTU21D;61301;51.956;5.876;2022-11-20T04:44:01;3.93;60.31
73112;HTU21D;61301;51.956;5.876;2022-11-20T04:46:31;3.90;59.17
73112;HTU21D;61301;51.956;5.876;2022-11-20T04:48:58;3.70;58.28
73112;HTU21D;61301;51.956;5.876;2022-11-20T04:51:25;3.59;58.29
73112;HTU21D;61301;51.956;5.876;2022-11-20T04:53:51;3.57;58.67
73112;HTU21D;61301;51.956;5.876;2022-11-20T04:56:17;3.63;59.53
73112;HTU21D;61301;51.956;5.876;2022-11-20T04:58:43;3.76;59.95
73112;HTU21D;61301;51.956;5.876;2022-11-20T05:01:14;3.89;60.32
73112;HTU21D;61301;51.956;5.876;2022-11-20T05:03:41;3.82;59.01
73112;HTU21D;61301;51.956;5.876;2022-11-20T05:06:08;3.59;58.34
73112;HTU21D;61301;51.956;5.876;2022-11-20T05:08:34;3.54;59.19
73112;HTU21D;61301;51.956;5.876;2022-11-20T05:11:06;3.57;58.98
73112;HTU21D;61301;51.956;5.876;2022-11-20T05:13:32;3.60;59.19
73112;HTU21D;61301;51.956;5.876;2022-11-20T05:16:09;3.46;58.41
73112;HTU21D;61301;51.956;5.876;2022-11-20T05:18:36;3.44;59.62
73112;HTU21D;61301;51.956;5.876;2022-11-20T05:21:02;3.47;59.14
73112;HTU21D;61301;51.956;5.876;2022-11-20T05:23:30;3.55;60.16
73112;HTU21D;61301;51.956;5.876;2022-11-20T05:25:57;3.63;60.03
73112;HTU21D;61301;51.956;5.876;2022-11-20T05:28:24;3.74;60.36
73112;HTU21D;61301;51.956;5.876;2022-11-20T05:30:50;3.85;60.02
73112;HTU21D;61301;51.956;5.876;2022-11-20T05:33:16;3.88;58.17
73112;HTU21D;61301;51.956;5.876;2022-11-20T05:35:43;3.76;59.15
73112;HTU21D;61301;51.956;5.876;2022-11-20T05:38:09;3.84;59.86
73112;HTU21D;61301;51.956;5.876;2022-11-20T05:40:35;3.94;60.41
73112;HTU21D;61301;51.956;5.876;2022-11-20T05:43:01;4.03;60.28
73112;HTU21D;61301;51.956;5.876;2022-11-20T05:45:28;3.89;58.81
73112;HTU21D;61301;51.956;5.876;2022-11-20T05:47:57;3.73;58.99
73112;HTU21D;61301;51.956;5.876;2022-11-20T05:50:24;3.70;59.22
73112;HTU21D;61301;51.956;5.876;2022-11-20T05:52:50;3.68;59.19
73112;HTU21D;61301;51.956;5.876;2022-11-20T05:55:16;3.62;59.17
73112;HTU21D;61301;51.956;5.876;2022-11-20T05:57:42;3.58;59.12
73112;HTU21D;61301;51.956;5.876;2022-11-20T06:00:09;3.48;58.85
73112;HTU21D;61301;51.956;5.876;2022-11-20T06:02:35;3.48;59.11
73112;HTU21D;61301;51.956;5.876;2022-11-20T06:05:02;3.31;57.77
73112;HTU21D;61301;51.956;5.876;2022-11-20T06:07:28;3.28;58.48
73112;HTU21D;61301;51.956;5.876;2022-11-20T06:09:54;3.29;59.64
73112;HTU21D;61301;51.956;5.876;2022-11-20T06:12:20;3.35;59.93
73112;HTU21D;61301;51.956;5.876;2022-11-20T06:14:46;3.41;60.02
73112;HTU21D;61301;51.956;5.876;2022-11-20T06:17:12;3.31;58.52
73112;HTU21D;61301;51.956;5.876;2022-11-20T06:19:38;3.09;58.13
73112;HTU21D;61301;51.956;5.876;2022-11-20T06:22:04;2.91;57.88
73112;HTU21D;61301;51.956;5.876;2022-11-20T06:24:30;2.95;58.28
73112;HTU21D;61301;51.956;5.876;2022-11-20T06:26:56;2.96;58.48
73112;HTU21D;61301;51.956;5.876;2022-11-20T06:29:22;3.12;59.51
73112;HTU21D;61301;51.956;5.876;2022-11-20T06:31:48;3.29;59.81
73112;HTU21D;61301;51.956;5.876;2022-11-20T06:34:14;3.38;59.38
73112;HTU21D;61301;51.956;5.876;2022-11-20T06:36:40;3.42;59.49
73112;HTU21D;61301;51.956;5.876;2022-11-20T06:39:06;3.42;59.04
73112;HTU21D;61301;51.956;5.876;2022-11-20T06:41:32;3.27;58.53
73112;HTU21D;61301;51.956;5.876;2022-11-20T06:43:58;3.32;60.22
73112;HTU21D;61301;51.956;5.876;2022-11-20T06:46:24;3.39;60.41
73112;HTU21D;61301;51.956;5.876;2022-11-20T06:48:50;3.48;60.59
73112;HTU21D;61301;51.956;5.876;2022-11-20T06:51:17;3.47;60.50
73112;HTU21D;61301;51.956;5.876;2022-11-20T06:53:43;3.57;60.90
73112;HTU21D;61301;51.956;5.876;2022-11-20T06:56:09;3.50;60.18
73112;HTU21D;61301;51.956;5.876;2022-11-20T06:58:36;3.50;60.66
73112;HTU21D;61301;51.956;5.876;2022-11-20T07:01:06;3.55;60.23
73112;HTU21D;61301;51.956;5.876;2022-11-20T07:03:32;3.49;59.56
73112;HTU21D;61301;51.956;5.876;2022-11-20T07:06:00;3.44;59.41
73112;HTU21D;61301;51.956;5.876;2022-11-20T07:08:26;3.39;58.91
73112;HTU21D;61301;51.956;5.876;2022-11-20T07:10:52;3.25;58.32
73112;HTU21D;61301;51.956;5.876;2022-11-20T07:13:18;3.24;59.45
73112;HTU21D;61301;51.956;5.876;2022-11-20T07:15:44;3.39;61.31
73112;HTU21D;61301;51.956;5.876;2022-11-20T07:18:10;3.49;60.93
73112;HTU21D;61301;51.956;5.876;2022-11-20T07:20:36;3.40;59.87
73112;HTU21D;61301;51.956;5.876;2022-11-20T07:23:02;3.44;60.48
73112;HTU21D;61301;51.956;5.876;2022-11-20T07:25:28;3.49;60.67
73112;HTU21D;61301;51.956;5.876;2022-11-20T07:28:00;3.56;60.44
73112;HTU21D;61301;51.956;5.876;2022-11-20T07:30:27;3.67;60.99
73112;HTU21D;61301;51.956;5.876;2022-11-20T07:32:53;3.69;60.28
73112;HTU21D;61301;51.956;5.876;2022-11-20T07:35:20;3.71;60.28
73112;HTU21D;61301;51.956;5.876;2022-11-20T07:37:46;3.78;60.67
73112;HTU21D;61301;51.956;5.876;2022-11-20T07:40:13;3.87;60.94
73112;HTU21D;61301;51.956;5.876;2022-11-20T07:42:39;3.80;59.73
73112;HTU21D;61301;51.956;5.876;2022-11-20T07:45:12;3.65;59.22
73112;HTU21D;61301;51.956;5.876;2022-11-20T07:47:38;3.53;58.93
73112;HTU21D;61301;51.956;5.876;2022-11-20T07:50:04;3.53;59.35
73112;HTU21D;61301;51.956;5.876;2022-11-20T07:52:31;3.57;59.43
73112;HTU21D;61301;51.956;5.876;2022-11-20T07:54:56;3.49;58.90
73112;HTU21D;61301;51.956;5.876;2022-11-20T07:57:22;3.47;58.87
73112;HTU21D;61301;51.956;5.876;2022-11-20T07:59:48;3.45;58.38
73112;HTU21D;61301;51.956;5.876;2022-11-20T08:02:14;3.36;58.19
73112;HTU21D;61301;51.956;5.876;2022-11-20T08:04:40;3.41;58.68
73112;HTU21D;61301;51.956;5.876;2022-11-20T08:07:06;3.52;58.78
73112;HTU21D;61301;51.956;5.876;2022-11-20T08:09:32;3.56;57.96
73112;HTU21D;61301;51.956;5.876;2022-11-20T08:11:58;3.61;57.90
73112;HTU21D;61301;51.956;5.876;2022-11-20T08:14:43;3.72;57.93
73112;HTU21D;61301;51.956;5.876;2022-11-20T08:17:09;3.82;58.03
73112;HTU21D;61301;51.956;5.876;2022-11-20T08:19:35;3.94;57.93
73112;HTU21D;61301;51.956;5.876;2022-11-20T08:22:01;3.95;57.21
73112;HTU21D;61301;51.956;5.876;2022-11-20T08:24:27;3.89;57.03
73112;HTU21D;61301;51.956;5.876;2022-11-20T08:26:53;3.85;57.29
73112;HTU21D;61301;51.956;5.876;2022-11-20T08:29:19;3.82;57.28
73112;HTU21D;61301;51.956;5.876;2022-11-20T08:31:45;3.85;57.37
73112;HTU21D;61301;51.956;5.876;2022-11-20T08:34:11;3.88;57.51
73112;HTU21D;61301;51.956;5.876;2022-11-20T08:36:37;3.92;57.57
73112;HTU21D;61301;51.956;5.876;2022-11-20T08:39:03;4.05;57.71
73112;HTU21D;61301;51.956;5.876;2022-11-20T08:41:30;4.04;57.35
73112;HTU21D;61301;51.956;5.876;2022-11-20T08:44:00;3.90;57.42
73112;HTU21D;61301;51.956;5.876;2022-11-20T08:46:35;3.79;58.13
73112;HTU21D;61301;51.956;5.876;2022-11-20T08:49:06;3.74;59.07
73112;HTU21D;61301;51.956;5.876;2022-11-20T08:51:32;3.80;59.12
73112;HTU21D;61301;51.956;5.876;2022-11-20T08:53:58;3.97;58.64
73112;HTU21D;61301;51.956;5.876;2022-11-20T08:56:24;4.14;58.34
73112;HTU21D;61301;51.956;5.876;2022-11-20T08:58:51;4.13;57.84
73112;HTU21D;61301;51.956;5.876;2022-11-20T09:01:21;3.99;58.07
73112;HTU21D;61301;51.956;5.876;2022-11-20T09:03:48;3.89;58.19
73112;HTU21D;61301;51.956;5.876;2022-11-20T09:06:15;3.91;58.22
73112;HTU21D;61301;51.956;5.876;2022-11-20T09:08:41;4.06;58.70
73112;HTU21D;61301;51.956;5.876;2022-11-20T09:11:08;4.13;58.47
73112;HTU21D;61301;51.956;5.876;2022-11-20T09:13:35;4.20;58.31
73112;HTU21D;61301;51.956;5.876;2022-11-20T09:16:07;4.18;58.31
73112;HTU21D;61301;51.956;5.876;2022-11-20T09:18:34;4.09;58.61
73112;HTU21D;61301;51.956;5.876;2022-11-20T09:21:09;4.04;58.87
73112;HTU21D;61301;51.956;5.876;2022-11-20T09:23:39;3.97;59.07
73112;HTU21D;61301;51.956;5.876;2022-11-20T09:26:06;3.90;59.19
73112;HTU21D;61301;51.956;5.876;2022-11-20T09:28:33;3.88;59.57
73112;HTU21D;61301;51.956;5.876;2022-11-20T09:30:59;3.90;59.57
73112;HTU21D;61301;51.956;5.876;2022-11-20T09:33:26;3.94;59.32
73112;HTU21D;61301;51.956;5.876;2022-11-20T09:35:52;4.05;59.22
73112;HTU21D;61301;51.956;5.876;2022-11-20T09:38:18;4.23;59.39
73112;HTU21D;61301;51.956;5.876;2022-11-20T09:40:49;4.44;59.47
73112;HTU21D;61301;51.956;5.876;2022-11-20T09:43:21;4.49;58.48
73112;HTU21D;61301;51.956;5.876;2022-11-20T09:48:51;4.66;58.80
73112;HTU21D;61301;51.956;5.876;2022-11-20T09:51:44;4.74;58.40
73112;HTU21D;61301;51.956;5.876;2022-11-20T09:54:20;4.72;58.41
73112;HTU21D;61301;51.956;5.876;2022-11-20T09:56:59;4.60;58.41
73112;HTU21D;61301;51.956;5.876;2022-11-20T09:59:34;4.49;58.79
73112;HTU21D;61301;51.956;5.876;2022-11-20T10:02:03;4.56;58.85
73112;HTU21D;61301;51.956;5.876;2022-11-20T10:04:32;4.64;58.64
73112;HTU21D;61301;51.956;5.876;2022-11-20T10:07:13;4.79;58.70
73112;HTU21D;61301;51.956;5.876;2022-11-20T10:09:50;4.95;58.67
73112;HTU21D;61301;51.956;5.876;2022-11-20T10:12:44;5.00;58.32
73112;HTU21D;61301;51.956;5.876;2022-11-20T10:18:09;4.95;58.40
73112;HTU21D;61301;51.956;5.876;2022-11-20T10:26:02;5.07;58.53
73112;HTU21D;61301;51.956;5.876;2022-11-20T10:31:34;5.31;58.43
73112;HTU21D;61301;51.956;5.876;2022-11-20T10:34:24;5.40;58.50
73112;HTU21D;61301;51.956;5.876;2022-11-20T10:36:57;5.48;58.46
73112;HTU21D;61301;51.956;5.876;2022-11-20T10:39:41;5.60;58.29
73112;HTU21D;61301;51.956;5.876;2022-11-20T10:42:13;5.68;58.07
73112;HTU21D;61301;51.956;5.876;2022-11-20T10:44:48;5.68;58.15
73112;HTU21D;61301;51.956;5.876;2022-11-20T10:47:28;5.79;58.14
73112;HTU21D;61301;51.956;5.876;2022-11-20T10:49:58;5.86;58.03
73112;HTU21D;61301;51.956;5.876;2022-11-20T10:52:37;5.97;58.06
73112;HTU21D;61301;51.956;5.876;2022-11-20T11:00:33;5.80;58.32
73112;HTU21D;61301;51.956;5.876;2022-11-20T11:02:59;5.76;58.63
73112;HTU21D;61301;51.956;5.876;2022-11-20T11:05:44;5.90;58.42
73112;HTU21D;61301;51.956;5.876;2022-11-20T11:08:17;6.01;58.45
73112;HTU21D;61301;51.956;5.876;2022-11-20T11:10:47;6.04;58.38
73112;HTU21D;61301;51.956;5.876;2022-11-20T11:13:28;6.07;58.45
73112;HTU21D;61301;51.956;5.876;2022-11-20T11:15:54;6.20;58.39
73112;HTU21D;61301;51.956;5.876;2022-11-20T11:18:32;6.17;58.64
73112;HTU21D;61301;51.956;5.876;2022-11-20T11:21:01;6.14;58.80
73112;HTU21D;61301;51.956;5.876;2022-11-20T11:23:37;6.21;58.93
73112;HTU21D;61301;51.956;5.876;2022-11-20T11:26:06;6.22;59.10
73112;HTU21D;61301;51.956;5.876;2022-11-20T11:28:34;6.31;58.89
73112;HTU21D;61301;51.956;5.876;2022-11-20T11:31:00;6.37;59.51
73112;HTU21D;61301;51.956;5.876;2022-11-20T11:33:28;6.40;59.38
73112;HTU21D;61301;51.956;5.876;2022-11-20T11:35:58;6.46;59.59
73112;HTU21D;61301;51.956;5.876;2022-11-20T11:38:40;6.48;59.88
73112;HTU21D;61301;51.956;5.876;2022-11-20T11:41:11;6.58;59.62
73112;HTU21D;61301;51.956;5.876;2022-11-20T11:43:38;6.61;59.44
73112;HTU21D;61301;51.956;5.876;2022-11-20T11:46:33;6.58;59.94
73112;HTU21D;61301;51.956;5.876;2022-11-20T11:49:08;6.63;59.61
73112;HTU21D;61301;51.956;5.876;2022-11-20T11:54:53;6.61;59.96
73112;HTU21D;61301;51.956;5.876;2022-11-20T12:02:45;6.67;60.15
73112;HTU21D;61301;51.956;5.876;2022-11-20T12:05:21;6.57;60.73
73112;HTU21D;61301;51.956;5.876;2022-11-20T12:10:46;6.54;60.99
73112;HTU21D;61301;51.956;5.876;2022-11-20T12:16:12;6.61;60.99
73112;HTU21D;61301;51.956;5.876;2022-11-20T12:18:39;6.61;61.44
73112;HTU21D;61301;51.956;5.876;2022-11-20T12:21:18;6.65;61.59
73112;HTU21D;61301;51.956;5.876;2022-11-20T12:26:55;6.61;61.58
73112;HTU21D;61301;51.956;5.876;2022-11-20T12:35:13;6.59;62.20
73112;HTU21D;61301;51.956;5.876;2022-11-20T12:43:21;6.86;61.52
73112;HTU21D;61301;51.956;5.876;2022-11-20T12:54:50;6.98;61.65
73112;HTU21D;61301;51.956;5.876;2022-11-20T13:08:47;6.94;62.19
73112;HTU21D;61301;51.956;5.876;2022-11-20T13:19:37;7.09;62.00
73112;HTU21D;61301;51.956;5.876;2022-11-20T13:22:04;7.19;61.67
73112;HTU21D;61301;51.956;5.876;2022-11-20T13:24:31;7.18;61.59
73112;HTU21D;61301;51.956;5.876;2022-11-20T13:29:36;7.20;61.96
73112;HTU21D;61301;51.956;5.876;2022-11-20T13:32:20;7.15;62.28
73112;HTU21D;61301;51.956;5.876;2022-11-20T13:35:00;7.01;63.18
73112;HTU21D;61301;51.956;5.876;2022-11-20T13:42:37;7.01;63.77
73112;HTU21D;61301;51.956;5.876;2022-11-20T13:45:20;7.08;63.83
73112;HTU21D;61301;51.956;5.876;2022-11-20T13:47:48;7.09;63.73
73112;HTU21D;61301;51.956;5.876;2022-11-20T13:50:15;7.10;63.83
73112;HTU21D;61301;51.956;5.876;2022-11-20T13:55:40;7.03;64.55
73112;HTU21D;61301;51.956;5.876;2022-11-20T14:01:09;6.87;64.87
73112;HTU21D;61301;51.956;5.876;2022-11-20T14:03:35;6.88;64.78
73112;HTU21D;61301;51.956;5.876;2022-11-20T14:06:04;6.97;64.75
73112;HTU21D;61301;51.956;5.876;2022-11-20T14:08:36;7.02;64.85
73112;HTU21D;61301;51.956;5.876;2022-11-20T14:14:35;7.20;64.50
73112;HTU21D;61301;51.956;5.876;2022-11-20T14:16:36;7.18;64.28
73112;HTU21D;61301;51.956;5.876;2022-11-20T14:21:47;7.08;64.88
73112;HTU21D;61301;51.956;5.876;2022-11-20T14:24:13;7.04;64.62
73112;HTU21D;61301;51.956;5.876;2022-11-20T14:26:44;6.99;64.91
73112;HTU21D;61301;51.956;5.876;2022-11-20T14:29:18;6.98;65.39
73112;HTU21D;61301;51.956;5.876;2022-11-20T14:31:46;6.90;65.71
73112;HTU21D;61301;51.956;5.876;2022-11-20T14:34:17;6.89;65.63
73112;HTU21D;61301;51.956;5.876;2022-11-20T14:36:44;6.95;65.33
73112;HTU21D;61301;51.956;5.876;2022-11-20T14:39:35;7.05;65.24
73112;HTU21D;61301;51.956;5.876;2022-11-20T14:42:03;7.03;65.53
73112;HTU21D;61301;51.956;5.876;2022-11-20T14:44:39;7.07;65.14
73112;HTU21D;61301;51.956;5.876;2022-11-20T14:47:08;7.09;65.04
73112;HTU21D;61301;51.956;5.876;2022-11-20T14:49:36;7.13;65.08
73112;HTU21D;61301;51.956;5.876;2022-11-20T14:52:11;7.14;65.11
73112;HTU21D;61301;51.956;5.876;2022-11-20T14:54:55;7.11;65.38
73112;HTU21D;61301;51.956;5.876;2022-11-20T14:57:35;7.09;65.56
73112;HTU21D;61301;51.956;5.876;2022-11-20T15:02:44;7.04;66.00
73112;HTU21D;61301;51.956;5.876;2022-11-20T15:05:10;7.07;65.69
73112;HTU21D;61301;51.956;5.876;2022-11-20T15:07:41;7.03;66.06
73112;HTU21D;61301;51.956;5.876;2022-11-20T15:10:23;7.00;66.56
73112;HTU21D;61301;51.956;5.876;2022-11-20T15:13:00;7.09;66.17
73112;HTU21D;61301;51.956;5.876;2022-11-20T15:15:38;7.13;66.33
73112;HTU21D;61301;51.956;5.876;2022-11-20T15:18:05;7.15;66.49
73112;HTU21D;61301;51.956;5.876;2022-11-20T15:20:32;7.14;66.28
73112;HTU21D;61301;51.956;5.876;2022-11-20T15:22:59;7.16;66.45
73112;HTU21D;61301;51.956;5.876;2022-11-20T15:25:25;7.22;66.22
73112;HTU21D;61301;51.956;5.876;2022-11-20T15:27:55;7.26;66.01
73112;HTU21D;61301;51.956;5.876;2022-11-20T15:30:22;7.19;66.35
73112;HTU21D;61301;51.956;5.876;2022-11-20T15:32:48;7.24;66.14
73112;HTU21D;61301;51.956;5.876;2022-11-20T15:35:14;7.34;66.11
73112;HTU21D;61301;51.956;5.876;2022-11-20T15:37:41;7.31;66.18
73112;HTU21D;61301;51.956;5.876;2022-11-20T15:40:09;7.32;66.20
73112;HTU21D;61301;51.956;5.876;2022-11-20T15:42:35;7.29;66.31
73112;HTU21D;61301;51.956;5.876;2022-11-20T15:45:01;7.31;66.07
73112;HTU21D;61301;51.956;5.876;2022-11-20T15:47:32;7.32;66.36
73112;HTU21D;61301;51.956;5.876;2022-11-20T15:49:59;7.28;66.69
73112;HTU21D;61301;51.956;5.876;2022-11-20T15:52:25;7.18;67.39
73112;HTU21D;61301;51.956;5.876;2022-11-20T15:54:51;7.17;67.82
73112;HTU21D;61301;51.956;5.876;2022-11-20T15:57:17;7.16;68.12
73112;HTU21D;61301;51.956;5.876;2022-11-20T15:59:43;7.16;68.00
73112;HTU21D;61301;51.956;5.876;2022-11-20T16:02:11;7.24;67.68
73112;HTU21D;61301;51.956;5.876;2022-11-20T16:04:37;7.22;67.62
73112;HTU21D;61301;51.956;5.876;2022-11-20T16:07:03;7.25;67.33
73112;HTU21D;61301;51.956;5.876;2022-11-20T16:09:30;7.25;67.30
73112;HTU21D;61301;51.956;5.876;2022-11-20T16:11:56;7.25;67.23
73112;HTU21D;61301;51.956;5.876;2022-11-20T16:14:25;7.24;67.20
73112;HTU21D;61301;51.956;5.876;2022-11-20T16:17:10;7.29;67.04
73112;HTU21D;61301;51.956;5.876;2022-11-20T16:19:36;7.28;67.07
73112;HTU21D;61301;51.956;5.876;2022-11-20T16:22:02;7.28;67.16
73112;HTU21D;61301;51.956;5.876;2022-11-20T16:24:29;7.25;67.27
73112;HTU21D;61301;51.956;5.876;2022-11-20T16:26:55;7.29;67.44
73112;HTU21D;61301;51.956;5.876;2022-11-20T16:29:21;7.26;67.65
73112;HTU21D;61301;51.956;5.876;2022-11-20T16:31:47;7.22;67.68
73112;HTU21D;61301;51.956;5.876;2022-11-20T16:34:15;7.18;67.80
73112;HTU21D;61301;51.956;5.876;2022-11-20T16:36:42;7.15;67.99
73112;HTU21D;61301;51.956;5.876;2022-11-20T16:39:09;7.12;67.99
73112;HTU21D;61301;51.956;5.876;2022-11-20T16:41:35;7.05;68.08
73112;HTU21D;61301;51.956;5.876;2022-11-20T16:44:06;7.03;68.34
73112;HTU21D;61301;51.956;5.876;2022-11-20T16:46:32;7.03;68.37
73112;HTU21D;61301;51.956;5.876;2022-11-20T16:49:04;7.00;68.58
73112;HTU21D;61301;51.956;5.876;2022-11-20T16:51:33;7.00;68.65
73112;HTU21D;61301;51.956;5.876;2022-11-20T16:54:04;7.01;68.66
73112;HTU21D;61301;51.956;5.876;2022-11-20T16:56:30;7.01;68.75
73112;HTU21D;61301;51.956;5.876;2022-11-20T16:58:57;7.00;68.82
73112;HTU21D;61301;51.956;5.876;2022-11-20T17:01:25;7.01;68.87
73112;HTU21D;61301;51.956;5.876;2022-11-20T17:04:04;7.00;69.02
73112;HTU21D;61301;51.956;5.876;2022-11-20T17:06:35;7.00;68.98
73112;HTU21D;61301;51.956;5.876;2022-11-20T17:09:02;7.03;69.01
73112;HTU21D;61301;51.956;5.876;2022-11-20T17:11:28;7.03;69.10
73112;HTU21D;61301;51.956;5.876;2022-11-20T17:13:55;7.04;69.34
73112;HTU21D;61301;51.956;5.876;2022-11-20T17:16:23;7.11;68.95
73112;HTU21D;61301;51.956;5.876;2022-11-20T17:18:49;7.12;68.90
73112;HTU21D;61301;51.956;5.876;2022-11-20T17:21:17;7.10;68.86
73112;HTU21D;61301;51.956;5.876;2022-11-20T17:23:44;7.07;68.94
73112;HTU21D;61301;51.956;5.876;2022-11-20T17:26:19;7.07;69.16
73112;HTU21D;61301;51.956;5.876;2022-11-20T17:28:52;7.08;69.06